Main page
METAR-TAF:

METAR-TAF

Airports :

Bornholm Airport

Rønne, Denmark

latitude: 55-04N, longitude: 014-45E, elevation: 16 m

Current weather observation

The report was made 29 minutes ago, at 18:50 UTC
Wind 4 kt from the Southeast, varying between East/Southeast and South
Temperature 18°C
Humidity 88%
Pressure 1013 hPa
Visibility 10 km or more

METAR: EKRN 141850Z AUTO 13004KT 110V170 9999 NCD 18/16 Q1013

Time: 21:19 (19:19 UTC)

Forecast

The report was made 2 hours and 18 minutes ago, at 17:01 UTC
Forecast valid from 14 at 18 UTC to 15 at 03 UTC
Wind 8 kt from the South
Visibility 10 km or more
Few clouds at a height of 8000 ft

TAF: EKRN 141701Z 1418/1503 18008KT 9999 FEW080

Weather observations and forecasts of more than 4000 airports (METAR and TAF reports).

The available stations are represented by yellow and red dots on the map.

Hover mouse over dot to see the name of the station.

Then click to see weather observations and forecasts.

To change the map : click on the green buttons with a black cross to zoom in, on the green button with a dash to zoom out, or on the green arrows for adjacent maps.


METAR-TAF: